Flight Track Log - Related Links

Times and Time Zones

All times are in EDT time to prevent confusion due to time zone crossing. See the UAL5900 flight status page for this flight to view local times or setup timezone preferences in your user account.

Time Position Orientation Groundspeed Altitude Reporting Facility
EDT Latitude Longitude Course Direction KTS MPH feet Rate Location/Type
Sat 04:14:33 PM 42.8328 -84.5272 281° West 218 251 5,800  Level Chicago Center
Sat 04:15:35 PM 42.8450 -84.6175 280° West 271 312 7,000 581 Climbing Chicago Center
Sat 04:16:00 PM 42.7667 -84.8681 270° West  Level FlightAware Approximate
Sat 04:16:37 PM 42.8392 -84.7153 265° West 262 302 7,000  Level Chicago Center
Sat 04:17:00 PM 42.7667 -84.9393 270° West  Level FlightAware Approximate
Sat 04:17:38 PM 42.8331 -84.8133 265° West 260 299 9,000  Level Chicago Center
Sat 04:18:00 PM 42.7682 -85.0103 281° West  Level FlightAware Approximate
Sat 04:18:40 PM 42.8264 -84.9192 265° West 274 315 11,500  Level Chicago Center
Sat 04:19:00 PM 42.7774 -85.0752 281° West  Level FlightAware Approximate
Sat 04:19:42 PM 42.8183 -85.0464 265° West 337 388 13,200  Level Chicago Center
Sat 04:20:43 PM 42.8064 -85.2125 264° West 364 419 15,600 1,366 Climbing Chicago Center
Sat 04:21:45 PM 42.7967 -85.3583 265° West 383 441 16,000 194 Climbing Chicago Center
Sat 04:22:47 PM 42.7853 -85.5075 264° West 393 452 16,000  Level Chicago Center
Sat 04:23:49 PM 42.7594 -85.6539 257° West 397 457 16,000  Level Chicago Center
Sat 04:24:50 PM 42.7328 -85.8017 256° West 400 460 16,000  Level Chicago Center
Sat 04:25:52 PM 42.7022 -85.9486 254° West 400 460 16,000  Level Chicago Center
Sat 04:26:54 PM 42.6706 -86.0947 254° West 400 460 16,000  Level Chicago Center
Sat 04:27:55 PM 42.6394 -86.2403 254° West 400 460 16,000  Level Chicago Center
Sat 04:28:57 PM 42.6064 -86.3856 253° West 401 461 16,000  Level Chicago Center
Sat 04:29:59 PM 42.5694 -86.5600 254° West 400 460 16,000  Level Chicago Center
Sat 04:31:01 PM 42.5367 -86.7044 253° West 401 461 16,000 -780 Level Chicago Center
Sat 04:32:02 PM 42.5083 -86.8406 254° West 380 437 14,400 -1,610 Descending Chicago Center
Sat 04:33:04 PM 42.4828 -86.9475 252° West 309 356 12,700 -1,500 Descending Chicago Center
Sat 04:34:06 PM 42.4586 -87.0533 253° West 296 341 11,300 -1,355 Descending Chicago Center
Sat 04:35:08 PM 42.4336 -87.1572 252° West 291 335 9,900 -1,113 Descending Chicago Center
Sat 04:36:10 PM 42.4106 -87.2619 253° West 291 335 9,000 -634 Descending Chicago Center
Sat 04:37:11 PM 42.3783 -87.3839 250° West 289 333 8,600 -829 Descending Chicago Center
Sat 04:38:13 PM 42.3389 -87.4600 235° Southwest 274 315 7,300 -774 Descending Chicago Center
Sat 04:39:15 PM 42.2925 -87.5556 237° Southwest 268 308 7,000 -194 Descending Chicago Center
Sat 04:40:17 PM 42.2433 -87.6286 228° Southwest 267 307 6,900 -581 Descending Chicago Center
Sat 04:41:19 PM 42.1875 -87.6856 217° Southwest 256 295 5,800 -1,220 Descending Chicago Center
Sat 04:42:20 PM 42.1397 -87.7408 221° Southwest 233 268 4,400 -1,377 Descending Chicago Center

Login

Don't have an account? Register now (free) for customized features, flight alerts, and more!